Latest Weather Observations for North Island

IDW60801

Issued at 3:53 pm WST Thursday 18 August 2022 (issued every 10 minutes, with the page automatically refreshed every 10 minutes)

About weather observations | Map of weather stations | Latest weather observations for WA | Other Formats
Station Details ID: 008290 Name: NORTH ISLAND Lat: -28.30 Lon: 113.59 Height: 2.2 m
Data from the previous 72 hours. | See also: Recent months at North Island
Date/Time
WST
Temp
°C
App
Temp
°C
Dew
Point
°C
Rel
Hum
%
Delta-T
°C
Wind Press
QNH
hPa
Press
MSL
hPa
Rain since
9am
mm
Dir  Spd
km/h
Gust
km/h
Spd
kts
Gust
kts
18/03:30pm 17.6 11.5 6.5 48 5.5 E 28 37 15 20 1026.2 1026.2 0.2
18/03:00pm 17.8 11.8 7.0 49 5.4 E 28 39 15 21 1026.3 1026.3 0.2
18/02:30pm 18.1 12.4 6.9 48 5.6 E 26 35 14 19 1026.4 1026.4 0.2
18/02:00pm 18.5 12.2 7.6 49 5.5 E 30 35 16 19 1026.4 1026.4 0.2
18/01:30pm 18.4 13.1 6.9 47 5.8 E 24 33 13 18 1026.6 1026.6 0.2
18/01:00pm 18.8 13.1 8.2 50 5.4 E 28 35 15 19 1026.6 1026.6 0.2
18/12:30pm 18.4 12.4 8.7 53 5.0 ENE 30 39 16 21 1026.8 1026.8 0.2
18/12:00pm 18.4 12.6 8.1 51 5.2 ENE 28 37 15 20 1027.1 1027.1 0.2
18/11:30am 17.9 12.0 7.3 50 5.3 ENE 28 35 15 19 1027.5 1027.5 0.2
18/11:00am 17.9 12.0 7.6 51 5.2 ESE 28 35 15 19 1027.7 1027.7 0.2
18/10:30am 17.6 10.8 7.1 50 5.2 ESE 32 39 17 21 1027.5 1027.5 0.0
18/10:00am 17.4 11.1 7.5 52 4.9 ESE 30 39 16 21 1027.1 1027.1 0.0
18/09:30am 16.7 9.8 6.5 51 5.0 ESE 32 43 17 23 1027.0 1027.0 0.0
18/09:00am 16.7 10.1 7.6 55 4.5 ESE 32 43 17 23 1026.8 1026.8 2.4
18/08:30am 16.1 9.3 7.6 57 4.2 ESE 33 43 18 23 1026.3 1026.3 2.4
18/08:00am 15.5 9.0 8.3 62 3.6 ESE 32 41 17 22 1026.1 1026.1 2.4
18/07:30am 15.4 8.9 8.9 65 3.3 ESE 33 43 18 23 1025.6 1025.6 2.4
18/07:00am 14.5 8.6 11.1 80 1.8 SE 33 43 18 23 1025.5 1025.5 2.4
18/06:30am 14.8 8.0 10.8 77 2.1 SE 37 50 20 27 1024.9 1024.9 2.4
18/06:28am 15.0 8.7 11.0 77 2.1 SE 35 48 19 26 1024.9 1024.9 2.4
18/06:00am 15.7 10.1 11.5 76 2.3 ESE 32 41 17 22 1024.5 1024.5 2.4
18/05:37am 15.4 10.1 10.0 70 2.8 SE 28 46 15 25 1024.3 1024.3 2.4
18/05:30am 15.5 9.4 10.3 71 2.7 SSE 33 50 18 27 1024.2 1024.2 2.4
18/05:25am 15.9 10.7 10.4 70 2.9 SE 28 50 15 27 1024.1 1024.1 2.4
18/05:00am 15.7 10.5 8.7 63 3.5 SE 26 33 14 18 1023.8 1023.8 2.4
18/04:30am 15.9 9.8 8.4 61 3.8 SSE 30 39 16 21 1023.5 1023.5 2.4
18/04:00am 16.1 9.8 8.8 62 3.7 SSE 32 43 17 23 1023.4 1023.4 2.4
18/03:30am 16.0 9.5 8.2 60 3.9 SSE 32 41 17 22 1023.3 1023.3 2.4
18/03:00am 16.2 10.0 7.7 57 4.2 SSE 30 39 16 21 1023.0 1023.0 2.4
18/02:30am 16.3 10.0 9.0 62 3.8 SSE 32 41 17 22 1023.0 1023.0 2.4
18/02:00am 16.4 9.8 8.6 60 4.0 S 33 41 18 22 1022.8 1022.8 2.4
18/01:30am 16.2 9.9 8.9 62 3.7 SSE 32 41 17 22 1022.8 1022.8 2.4
18/01:00am 16.1 10.1 10.2 68 3.1 S 32 44 17 24 1022.7 1022.7 2.4
18/12:48am 15.9 10.6 10.0 68 3.1 S 28 41 15 22 1022.7 1022.7 2.4
18/12:30am 14.4 10.9 11.0 80 1.8 SSW 20 26 11 14 1022.9 1022.9 2.4
18/12:14am 14.1 7.5 11.4 84 1.4 S 37 57 20 31 1023.1 1023.1 2.4
18/12:00am 15.5 8.6 11.5 77 2.1 S 39 54 21 29 1022.8 1022.8 2.4
 
Date/Time
WST
Temp
°C
App
Temp
°C
Dew
Point
°C
Rel
Hum
%
Delta-T
°C
Wind Press
QNH
hPa
Press
MSL
hPa
Rain since
9am
mm
Dir  Spd
km/h
Gust
km/h
Spd
kts
Gust
kts
17/11:30pm 15.6 7.7 9.5 67 3.2 SSW 41 50 22 27 1022.8 1022.8 2.4
17/11:00pm 15.6 9.3 8.8 64 3.5 SSW 32 37 17 20 1023.0 1023.0 2.4
17/10:30pm 15.8 8.3 7.8 59 4.0 SSW 37 48 20 26 1022.8 1022.8 2.4
17/10:00pm 15.9 8.4 7.9 59 4.0 SSW 37 44 20 24 1022.7 1022.7 2.4
17/09:30pm 15.6 7.7 7.9 60 3.9 SW 39 48 21 26 1022.6 1022.6 2.4
17/09:00pm 15.5 7.4 8.7 64 3.4 SSW 41 56 22 30 1022.2 1022.2 2.4
17/08:30pm 15.9 9.0 8.9 63 3.6 SW 35 46 19 25 1021.9 1021.9 2.4
17/08:00pm 15.3 6.7 6.6 56 4.2 SW 41 50 22 27 1021.7 1021.7 2.4
17/07:30pm 16.1 7.8 9.5 65 3.4 SW 43 56 23 30 1021.3 1021.3 2.4
17/07:00pm 15.8 6.1 7.6 58 4.1 SW 48 59 26 32 1020.9 1020.9 2.4
17/06:30pm 16.0 6.8 8.2 60 3.9 SW 46 61 25 33 1020.4 1020.4 2.4
17/06:15pm 16.1 6.8 7.6 57 4.2 SW 46 69 25 37 1020.0 1020.0 2.4
17/06:00pm 16.2 6.5 7.7 57 4.2 SW 48 61 26 33 1019.9 1019.9 2.4
17/05:30pm 16.2 6.6 9.4 64 3.5 SW 50 65 27 35 1019.4 1019.4 2.4
17/05:00pm 16.8 7.5 10.4 66 3.4 SW 50 63 27 34 1018.8 1018.8 2.4
17/04:31pm 16.0 7.6 11.2 73 2.6 SW 46 67 25 36 1018.3 1018.3 2.4
17/04:30pm 16.0 7.8 11.8 76 2.3 SW 46 61 25 33 1018.3 1018.3 2.4
17/04:00pm 16.1 7.2 11.9 76 2.3 SW 50 69 27 37 1017.9 1017.9 2.4
17/03:42pm 16.8 9.1 13.3 80 2.0 WSW 46 65 25 35 1017.7 1017.7 2.4
17/03:30pm 16.6 7.9 12.4 76 2.3 WSW 50 59 27 32 1017.5 1017.5 2.4
17/03:00pm 15.7 6.9 13.5 87 1.2 WSW 52 70 28 38 1017.3 1017.3 2.0
17/02:30pm 18.8 10.6 13.0 69 3.3 WSW 48 70 26 38 1016.6 1016.6 1.2
17/02:27pm 18.8 10.3 12.1 65 3.7 WSW 48 70 26 38 1016.5 1016.5 1.2
17/02:00pm 19.6 11.1 12.1 62 4.2 WSW 48 61 26 33 1016.2 1016.2 1.2
17/01:30pm 16.5 8.8 13.4 82 1.7 WSW 46 69 25 37 1016.5 1016.5 1.2
17/01:25pm 18.3 10.4 12.7 70 3.1 WSW 46 65 25 35 1016.5 1016.5 1.2
17/01:00pm 19.2 11.6 12.5 65 3.7 WSW 44 59 24 32 1016.3 1016.3 1.2
17/12:30pm 18.2 11.1 13.3 73 2.8 WSW 43 65 23 35 1016.6 1016.6 1.2
17/12:10pm 17.3 9.3 13.4 78 2.2 WSW 48 67 26 36 1016.6 1016.6 1.2
17/12:00pm 18.3 11.1 13.8 75 2.6 WSW 44 56 24 30 1016.5 1016.5 1.0
17/11:35am 17.1 10.0 14.0 82 1.8 WSW 44 63 24 34 1016.8 1016.8 1.0
17/11:30am 18.1 11.6 14.0 77 2.3 W 41 56 22 30 1016.6 1016.6 1.0
17/11:00am 19.0 13.6 15.9 82 1.8 WSW 39 57 21 31 1016.8 1016.8 1.0
17/10:30am 17.7 12.0 15.3 86 1.4 W 39 52 21 28 1016.8 1016.8 0.8
17/10:07am 18.3 12.1 12.7 70 3.1 W 37 56 20 30 1016.9 1016.9 0.0
17/10:00am 20.3 13.8 13.0 63 4.1 W 39 50 21 27 1016.7 1016.7 0.0
17/09:30am 19.3 12.2 13.3 68 3.4 W 43 54 23 29 1016.5 1016.5 0.0
17/09:04am 18.6 11.9 12.4 67 3.5 WSW 39 57 21 31 1016.4 1016.4 0.0
17/09:00am 18.1 10.6 12.1 68 3.3 WSW 43 57 23 31 1016.4 1016.4 2.0
17/08:30am 18.5 11.1 11.3 63 3.9 W 41 50 22 27 1016.0 1016.0 2.0
17/08:00am 16.9 11.2 13.0 78 2.2 WNW 35 48 19 26 1015.6 1015.6 2.0
17/07:37am 17.0 9.9 12.3 74 2.6 W 41 59 22 32 1015.4 1015.4 2.0
17/07:30am 18.2 12.1 11.7 66 3.6 W 35 46 19 25 1015.1 1015.1 2.0
17/07:00am 17.8 11.5 11.1 65 3.6 W 35 48 19 26 1015.0 1015.0 2.0
17/06:30am 17.5 9.9 10.6 64 3.7 W 41 54 22 29 1014.7 1014.7 2.0
17/06:00am 17.2 9.9 10.3 64 3.7 W 39 50 21 27 1014.4 1014.4 2.0
17/05:30am 17.7 11.5 11.3 66 3.5 W 35 43 19 23 1014.2 1014.2 2.0
17/05:00am 17.5 9.7 9.9 61 4.0 W 41 56 22 30 1014.0 1014.0 2.0
17/04:53am 17.5 10.4 9.4 59 4.2 W 37 56 20 30 1013.8 1013.8 2.0
17/04:30am 17.6 10.0 10.5 63 3.8 W 41 52 22 28 1013.7 1013.7 2.0
17/04:00am 17.4 10.7 11.0 66 3.4 W 37 48 20 26 1013.6 1013.6 2.0
17/03:30am 17.5 10.7 10.6 64 3.7 W 37 50 20 27 1013.4 1013.4 2.0
17/03:00am 17.2 9.1 10.1 63 3.8 W 43 52 23 28 1013.2 1013.2 2.0
17/02:30am 17.2 9.2 10.3 64 3.7 W 43 54 23 29 1013.4 1013.4 2.0
17/02:00am 17.1 8.8 10.2 64 3.7 W 44 63 24 34 1013.6 1013.6 2.0
17/01:58am 17.2 9.1 10.6 65 3.5 W 44 63 24 34 1013.6 1013.6 2.0
17/01:30am 16.8 9.3 10.9 68 3.2 W 41 52 22 28 1013.5 1013.5 2.0
17/01:00am 16.9 9.3 11.8 72 2.8 W 43 54 23 29 1013.5 1013.5 2.0
17/12:30am 16.6 8.1 10.7 68 3.1 W 46 59 25 32 1013.6 1013.6 2.0
17/12:03am 16.3 7.9 12.3 77 2.2 W 48 67 26 36 1013.7 1013.7 2.0
17/12:00am 15.9 6.4 11.3 74 2.5 W 52 67 28 36 1013.7 1013.7 2.0
 
Date/Time
WST
Temp
°C
App
Temp
°C
Dew
Point
°C
Rel
Hum
%
Delta-T
°C
Wind Press
QNH
hPa
Press
MSL
hPa
Rain since
9am
mm
Dir  Spd
km/h
Gust
km/h
Spd
kts
Gust
kts
16/11:51pm 16.8 8.7 12.1 74 2.6 W 46 65 25 35 1013.5 1013.5 2.0
16/11:30pm 16.4 9.5 11.6 73 2.6 W 39 52 21 28 1013.4 1013.4 1.8
16/11:11pm 15.9 8.4 12.1 78 2.1 W 43 63 23 34 1013.7 1013.7 1.6
16/11:00pm 16.5 9.8 12.3 76 2.3 W 39 50 21 27 1013.6 1013.6 1.6
16/10:51pm 15.9 9.1 12.1 78 2.1 WNW 39 57 21 31 1013.7 1013.7 1.6
16/10:30pm 16.3 10.0 12.3 77 2.2 W 37 48 20 26 1013.6 1013.6 1.6
16/10:01pm 16.2 9.2 13.7 85 1.4 W 43 61 23 33 1013.8 1013.8 1.6
16/10:00pm 16.1 8.9 13.0 82 1.7 W 43 57 23 31 1013.8 1013.8 1.6
16/09:57pm 16.6 10.0 12.6 77 2.2 W 39 57 21 31 1013.6 1013.6 1.6
16/09:30pm 15.8 9.9 12.4 80 1.9 W 35 46 19 25 1013.7 1013.7 1.4
16/09:08pm 14.8 8.5 12.3 85 1.4 W 37 56 20 30 1013.8 1013.8 1.4
16/09:00pm 15.3 8.2 13.3 88 1.1 W 43 57 23 31 1014.2 1014.2 0.8
16/08:53pm 15.7 9.5 11.5 76 2.3 W 35 57 19 31 1013.7 1013.7 0.4
16/08:30pm 17.8 11.6 9.2 57 4.5 WNW 32 43 17 23 1013.3 1013.3 0.4
16/08:00pm 17.8 11.4 9.4 58 4.4 W 33 46 18 25 1013.3 1013.3 0.4
16/07:30pm 17.5 10.7 9.2 58 4.3 W 35 46 19 25 1013.1 1013.1 0.4
16/07:00pm 17.5 11.5 10.9 65 3.6 W 33 41 18 22 1012.9 1012.9 0.4
16/06:30pm 17.7 10.1 9.1 57 4.5 W 39 48 21 26 1012.7 1012.7 0.4
16/06:00pm 17.9 10.9 9.8 59 4.3 W 37 46 20 25 1012.5 1012.5 0.4
16/05:30pm 18.2 11.7 10.3 60 4.2 W 35 46 19 25 1012.2 1012.2 0.4
16/05:00pm 18.7 11.7 9.8 56 4.7 W 37 46 20 25 1012.1 1012.1 0.4
16/04:30pm 18.6 11.7 10.2 58 4.5 W 37 46 20 25 1011.7 1011.7 0.4
16/04:00pm 19.4 13.1 10.9 58 4.6 W 35 50 19 27 1011.4 1011.4 0.4
16/03:30pm 19.7 12.5 10.7 56 4.9 W 39 48 21 26 1011.0 1011.0 0.2
16/03:00pm 19.5 13.4 11.8 61 4.3 W 35 43 19 23 1010.8 1010.8 0.2
16/02:30pm 19.7 13.6 11.7 60 4.4 W 35 44 19 24 1010.7 1010.7 0.2
16/02:00pm 19.2 13.8 13.8 71 3.1 WSW 35 43 19 23 1010.6 1010.6 0.2
16/01:30pm 18.6 12.9 13.0 70 3.2 W 35 43 19 23 1010.6 1010.6 0.2
16/01:00pm 18.4 12.9 13.7 74 2.7 WSW 35 43 19 23 1010.9 1010.9 0.2
16/12:30pm 18.3 12.8 13.6 74 2.7 W 35 44 19 24 1010.7 1010.7 0.2
16/12:00pm 18.0 12.5 13.5 75 2.5 WSW 35 44 19 24 1011.0 1011.0 0.2
16/11:30am 17.5 12.2 14.2 81 1.9 WSW 35 46 19 25 1011.0 1011.0 0.2
16/11:00am 17.5 12.0 14.8 84 1.6 WSW 37 46 20 25 1011.4 1011.4 0.2
16/10:30am 17.7 12.0 15.1 85 1.5 WSW 39 50 21 27 1011.5 1011.5 0.2
16/10:00am 18.1 12.2 15.7 86 1.4 WSW 41 52 22 28 1011.0 1011.0 0.2
16/09:30am 17.4 12.3 15.9 91 0.9 W 37 46 20 25 1010.2 1010.2 0.2
16/09:07am 17.7 11.5 16.0 90 1.0 W 43 57 23 31 1010.3 1010.3 0.0
16/09:00am 18.3 12.9 16.1 87 1.3 W 39 50 21 27 1010.2 1010.2 43.0
16/08:30am 18.3 12.8 15.7 85 1.5 WNW 39 46 21 25 1010.0 1010.0 42.6
16/08:00am 18.3 14.6 17.0 92 0.8 NW 32 39 17 21 1009.4 1009.4 42.2
16/07:30am 17.9 13.9 16.2 90 1.0 NW 32 41 17 22 1009.2 1009.2 41.8
16/07:00am 17.9 12.5 16.1 89 1.1 WNW 39 52 21 28 1008.9 1008.9 41.2
16/06:30am 17.9 14.4 16.6 92 0.8 WNW 30 39 16 21 1008.8 1008.8 40.4
16/06:00am 18.0 14.0 17.7 98 0.2 NW 35 46 19 25 1008.3 1008.3 39.6
16/05:30am 17.9 12.8 16.9 94 0.6 NW 39 54 21 29 1007.6 1007.6 38.2
16/05:00am 18.2 12.9 17.2 94 0.6 NW 41 54 22 29 1007.5 1007.5 36.6
16/04:52am 18.2 14.6 17.2 94 0.6 NW 32 52 17 28 1007.6 1007.6 36.4
16/04:30am 18.5 15.1 17.7 95 0.5 NW 32 37 17 20 1007.8 1007.8 34.8
16/04:00am 18.3 14.6 17.5 95 0.5 WNW 33 44 18 24 1007.5 1007.5 34.2
16/03:30am 18.4 14.8 17.2 93 0.7 WNW 32 39 17 21 1007.7 1007.7 33.6
16/03:00am 18.5 15.0 18.0 97 0.3 WNW 33 43 18 23 1007.7 1007.7 32.8
16/02:30am 18.9 15.9 18.6 98 0.2 W 32 39 17 21 1007.9 1007.9 32.2
16/02:00am 18.9 15.9 18.6 98 0.2 W 32 43 17 23 1007.5 1007.5 31.6
16/01:30am 19.0 16.4 18.7 98 0.2 W 30 37 16 20 1007.6 1007.6 31.2
16/01:00am 19.2 15.7 18.7 97 0.3 WNW 35 43 19 23 1007.2 1007.2 30.4
16/12:30am 19.4 17.4 19.1 98 0.2 WNW 28 35 15 19 1007.0 1007.0 29.8
16/12:00am 19.1 16.2 18.8 98 0.2 W 32 41 17 22 1007.0 1007.0 29.8
 
Date/Time
WST
Temp
°C
App
Temp
°C
Dew
Point
°C
Rel
Hum
%
Delta-T
°C
Wind Press
QNH
hPa
Press
MSL
hPa
Rain since
9am
mm
Dir  Spd
km/h
Gust
km/h
Spd
kts
Gust
kts
15/11:30pm 19.6 16.7 19.3 98 0.2 W 33 39 18 21 1007.0 1007.0 29.2
15/11:00pm 19.6 16.7 19.3 98 0.2 W 33 39 18 21 1006.7 1006.7 29.0
15/10:30pm 20.5 17.3 20.2 98 0.2 WNW 37 46 20 25 1006.7 1006.7 28.4
15/10:00pm 21.1 18.6 20.8 98 0.2 NW 35 44 19 24 1006.4 1006.4 27.2
15/09:30pm 21.2 17.6 20.9 98 0.2 NW 41 56 22 30 1006.3 1006.3 27.0
15/09:00pm 21.4 17.0 21.2 99 0.1 NW 46 72 25 39 1006.1 1006.1 26.0
15/08:58pm 21.5 17.7 21.3 99 0.1 NNW 43 72 23 39 1006.0 1006.0 26.0
15/08:42pm 21.0 16.9 20.8 99 0.1 NNW 43 61 23 33 1006.1 1006.1 24.4
15/08:30pm 21.7 18.0 21.5 99 0.1 NNW 43 50 23 27 1006.4 1006.4 17.0
15/08:00pm 20.6 17.1 20.3 98 0.2 N 39 52 21 28 1006.1 1006.1 14.0
15/07:30pm 19.7 17.8 19.4 98 0.2 N 28 35 15 19 1005.8 1005.8 13.2
15/07:00pm 19.5 16.6 19.2 98 0.2 N 33 39 18 21 1006.2 1006.2 12.0
15/06:30pm 19.3 18.0 19.0 98 0.2 N 24 32 13 17 1006.3 1006.3 10.4
15/06:00pm 19.0 14.7 18.7 98 0.2 NNW 39 57 21 31 1006.8 1006.8 8.0
15/05:30pm 18.7 13.3 18.4 98 0.2 N 44 56 24 30 1007.0 1007.0 5.4
15/05:11pm 19.0 12.4 18.3 96 0.4 NNW 50 69 27 37 1007.9 1007.9 3.2
15/05:00pm 19.4 13.3 18.4 94 0.6 NNW 48 65 26 35 1007.6 1007.6 1.8
15/04:35pm 20.2 13.3 17.6 85 1.6 NNW 50 72 27 39 1007.2 1007.2 0.2
15/04:30pm 21.0 15.6 17.0 78 2.4 NNW 41 72 22 39 1007.1 1007.1 0.2
15/04:29pm 21.4 16.8 17.0 76 2.7 NNW 37 72 20 39 1007.1 1007.1 0.0
15/04:00pm 22.7 19.7 16.7 69 3.7 N 28 35 15 19 1006.0 1006.0 0.0

Other formats

Comma delimited format used in spreadsheet applications
http://www.bom.gov.au/fwo/IDW60801/IDW60801.94405.axf

JavaScript Object Notation format (JSON) in row-major order
http://www.bom.gov.au/fwo/IDW60801/IDW60801.94405.json

Data quality

Most of these data are generated automatically and are frequently updated. Quality checks on data are not normally performed. It is possible for incorrect values to appear. Refer to information at About Latest Weather Observations and please check the disclaimer before using these data.